首页
METAR-TAF:

METAR-TAF

机场 :

莱比锡/哈雷机场

莱比锡, 德国

纬度: 51-25N, 经度: 012-14E, 海拔: 144米

当前天气观测

该预报发布于21分钟前的05:20 UTC
风速9节,风向,在东南西南之间变化
温度 5°C
湿度 81%
气压 1013 hPa
能见度10公里或以上
少量云层高于3300英尺

METAR: EDDP 190520Z 19009KT 130V230 9999 FEW033 05/02 Q1013 TEMPO 20015G25KT

时间: 06:41 (05:41 UTC)

预报

该预报发布于41分钟前的05:00 UTC
预报有效从19日的 06点(UTC)到 20日的 06点(UTC)
风速14节,风向南转西南
能见度10公里或以上
多云层高于3000英尺
成为
从 19日的 07点(UTC)到 19日的 10点(UTC)
风速9节,风向南转西南
成为
从 19日的 13点(UTC)到 19日的 15点(UTC)
风速4节,风向南转西南
短暂存在
从 19日的 21点(UTC)到 20日的 06点(UTC)
能見度: 4000
小雨
成为
从 19日的 22点(UTC)到 19日的 24点(UTC)
多云层高于1200英尺
成为
从 20日的 01点(UTC)到 20日的 03点(UTC)
多云层高于800英尺

TAF: EDDP 190500Z 1906/2006 20014KT 9999 BKN030 BECMG 1907/1910 21009KT BECMG 1913/1915 21004KT TEMPO 1921/2006 4000 -RA BECMG 1922/1924 BKN012 BECMG 2001/2003 BKN008

超过4000个机场的气象观测和天气预报(METAR&TAF报告)。

可查询的气象台以黄色和红色小点在地图上表示。

将鼠标移到小点上方,可查看气象台名称。

然后点击查看天气观测和预报。

如需切换地图:点击带黑十字的绿色按钮放大地图;点击带横线的绿色按钮缩小地图;或者点击绿色箭头查看邻近地区的地图。


METAR-TAF: